sensor_id;sensor_type;location;lat;lon;timestamp;P1;durP1;ratioP1;P2;durP2;ratioP2
1128;SDS011;553;51.038;7.216;2024-01-30T00:02:25;22.87;;;12.90;;
1128;SDS011;553;51.038;7.216;2024-01-30T00:04:52;17.60;;;12.70;;
1128;SDS011;553;51.038;7.216;2024-01-30T00:07:18;17.00;;;11.20;;
1128;SDS011;553;51.038;7.216;2024-01-30T00:09:46;16.70;;;11.70;;
1128;SDS011;553;51.038;7.216;2024-01-30T00:12:14;16.97;;;11.90;;
1128;SDS011;553;51.038;7.216;2024-01-30T00:14:41;21.20;;;11.30;;
1128;SDS011;553;51.038;7.216;2024-01-30T00:17:09;16.57;;;10.90;;
1128;SDS011;553;51.038;7.216;2024-01-30T00:19:36;16.57;;;11.40;;
1128;SDS011;553;51.038;7.216;2024-01-30T00:22:03;16.60;;;12.20;;
1128;SDS011;553;51.038;7.216;2024-01-30T00:24:30;16.57;;;12.60;;
1128;SDS011;553;51.038;7.216;2024-01-30T00:26:56;19.00;;;11.40;;
1128;SDS011;553;51.038;7.216;2024-01-30T00:29:24;17.90;;;13.17;;
1128;SDS011;553;51.038;7.216;2024-01-30T00:31:51;16.53;;;11.57;;
1128;SDS011;553;51.038;7.216;2024-01-30T00:34:18;16.90;;;11.40;;
1128;SDS011;553;51.038;7.216;2024-01-30T00:36:45;18.57;;;12.10;;
1128;SDS011;553;51.038;7.216;2024-01-30T00:39:13;17.13;;;12.60;;
1128;SDS011;553;51.038;7.216;2024-01-30T00:41:41;17.97;;;11.73;;
1128;SDS011;553;51.038;7.216;2024-01-30T00:44:08;15.63;;;11.67;;
1128;SDS011;553;51.038;7.216;2024-01-30T00:46:35;26.57;;;13.30;;
1128;SDS011;553;51.038;7.216;2024-01-30T00:49:02;18.10;;;11.73;;
1128;SDS011;553;51.038;7.216;2024-01-30T00:51:29;17.40;;;12.13;;
1128;SDS011;553;51.038;7.216;2024-01-30T00:53:56;19.87;;;12.77;;
1128;SDS011;553;51.038;7.216;2024-01-30T00:56:23;17.13;;;11.67;;
1128;SDS011;553;51.038;7.216;2024-01-30T00:58:50;19.10;;;12.20;;
1128;SDS011;553;51.038;7.216;2024-01-30T01:01:17;19.53;;;12.43;;
1128;SDS011;553;51.038;7.216;2024-01-30T01:03:44;19.17;;;12.80;;
1128;SDS011;553;51.038;7.216;2024-01-30T01:06:11;18.60;;;12.60;;
1128;SDS011;553;51.038;7.216;2024-01-30T01:08:37;16.17;;;11.73;;
1128;SDS011;553;51.038;7.216;2024-01-30T01:11:05;16.80;;;12.00;;
1128;SDS011;553;51.038;7.216;2024-01-30T01:13:31;19.57;;;12.93;;
1128;SDS011;553;51.038;7.216;2024-01-30T01:15:58;17.87;;;13.10;;
1128;SDS011;553;51.038;7.216;2024-01-30T01:18:25;15.70;;;11.67;;
1128;SDS011;553;51.038;7.216;2024-01-30T01:20:52;16.50;;;12.03;;
1128;SDS011;553;51.038;7.216;2024-01-30T01:23:18;19.80;;;13.17;;
1128;SDS011;553;51.038;7.216;2024-01-30T01:25:45;18.23;;;12.47;;
1128;SDS011;553;51.038;7.216;2024-01-30T01:28:12;18.70;;;13.43;;
1128;SDS011;553;51.038;7.216;2024-01-30T01:30:39;20.53;;;12.57;;
1128;SDS011;553;51.038;7.216;2024-01-30T01:33:06;17.17;;;12.30;;
1128;SDS011;553;51.038;7.216;2024-01-30T01:35:33;20.63;;;12.83;;
1128;SDS011;553;51.038;7.216;2024-01-30T01:38:00;18.93;;;12.23;;
1128;SDS011;553;51.038;7.216;2024-01-30T01:40:27;18.23;;;12.53;;
1128;SDS011;553;51.038;7.216;2024-01-30T01:42:55;20.00;;;12.30;;
1128;SDS011;553;51.038;7.216;2024-01-30T01:45:22;19.03;;;12.47;;
1128;SDS011;553;51.038;7.216;2024-01-30T01:47:52;24.00;;;13.97;;
1128;SDS011;553;51.038;7.216;2024-01-30T01:50:20;20.13;;;12.90;;
1128;SDS011;553;51.038;7.216;2024-01-30T01:52:48;17.90;;;13.07;;
1128;SDS011;553;51.038;7.216;2024-01-30T01:55:16;19.17;;;13.10;;
1128;SDS011;553;51.038;7.216;2024-01-30T01:57:47;18.67;;;12.60;;
1128;SDS011;553;51.038;7.216;2024-01-30T02:00:14;16.80;;;12.07;;
1128;SDS011;553;51.038;7.216;2024-01-30T02:02:42;18.93;;;11.17;;
1128;SDS011;553;51.038;7.216;2024-01-30T02:05:11;18.30;;;12.37;;
1128;SDS011;553;51.038;7.216;2024-01-30T02:07:38;19.53;;;12.83;;
1128;SDS011;553;51.038;7.216;2024-01-30T02:10:06;16.23;;;11.40;;
1128;SDS011;553;51.038;7.216;2024-01-30T02:12:35;18.27;;;11.67;;
1128;SDS011;553;51.038;7.216;2024-01-30T02:15:02;16.47;;;11.30;;
1128;SDS011;553;51.038;7.216;2024-01-30T02:17:29;19.10;;;12.70;;
1128;SDS011;553;51.038;7.216;2024-01-30T02:19:55;15.57;;;12.20;;
1128;SDS011;553;51.038;7.216;2024-01-30T02:22:22;16.87;;;12.17;;
1128;SDS011;553;51.038;7.216;2024-01-30T02:24:50;24.00;;;14.07;;
1128;SDS011;553;51.038;7.216;2024-01-30T02:27:17;20.10;;;12.10;;
1128;SDS011;553;51.038;7.216;2024-01-30T02:29:43;17.73;;;12.20;;
1128;SDS011;553;51.038;7.216;2024-01-30T02:32:10;21.17;;;12.00;;
1128;SDS011;553;51.038;7.216;2024-01-30T02:34:37;23.87;;;11.67;;
1128;SDS011;553;51.038;7.216;2024-01-30T02:37:04;17.93;;;12.03;;
1128;SDS011;553;51.038;7.216;2024-01-30T02:39:30;20.77;;;13.07;;
1128;SDS011;553;51.038;7.216;2024-01-30T02:41:57;17.40;;;12.50;;
1128;SDS011;553;51.038;7.216;2024-01-30T02:44:24;17.70;;;11.50;;
1128;SDS011;553;51.038;7.216;2024-01-30T02:46:51;17.97;;;11.97;;
1128;SDS011;553;51.038;7.216;2024-01-30T02:49:17;18.83;;;12.70;;
1128;SDS011;553;51.038;7.216;2024-01-30T02:51:44;22.13;;;12.33;;
1128;SDS011;553;51.038;7.216;2024-01-30T02:54:11;16.53;;;11.60;;
1128;SDS011;553;51.038;7.216;2024-01-30T02:56:39;19.07;;;11.77;;
1128;SDS011;553;51.038;7.216;2024-01-30T02:59:05;17.87;;;12.63;;
1128;SDS011;553;51.038;7.216;2024-01-30T03:01:32;22.20;;;12.40;;
1128;SDS011;553;51.038;7.216;2024-01-30T03:03:59;18.03;;;11.90;;
1128;SDS011;553;51.038;7.216;2024-01-30T03:06:26;25.43;;;12.70;;
1128;SDS011;553;51.038;7.216;2024-01-30T03:08:53;18.00;;;12.23;;
1128;SDS011;553;51.038;7.216;2024-01-30T03:11:19;21.97;;;12.33;;
1128;SDS011;553;51.038;7.216;2024-01-30T03:13:46;20.90;;;11.50;;
1128;SDS011;553;51.038;7.216;2024-01-30T03:16:13;15.77;;;11.37;;
1128;SDS011;553;51.038;7.216;2024-01-30T03:18:40;19.73;;;11.50;;
1128;SDS011;553;51.038;7.216;2024-01-30T03:21:06;15.30;;;10.93;;
1128;SDS011;553;51.038;7.216;2024-01-30T03:23:33;16.47;;;12.00;;
1128;SDS011;553;51.038;7.216;2024-01-30T03:26:00;18.57;;;11.30;;
1128;SDS011;553;51.038;7.216;2024-01-30T03:28:27;13.97;;;10.67;;
1128;SDS011;553;51.038;7.216;2024-01-30T03:30:54;16.27;;;10.90;;
1128;SDS011;553;51.038;7.216;2024-01-30T03:33:21;20.37;;;11.40;;
1128;SDS011;553;51.038;7.216;2024-01-30T03:35:47;15.97;;;11.40;;
1128;SDS011;553;51.038;7.216;2024-01-30T03:38:14;22.43;;;12.73;;
1128;SDS011;553;51.038;7.216;2024-01-30T03:40:41;20.50;;;12.07;;
1128;SDS011;553;51.038;7.216;2024-01-30T03:43:07;17.10;;;10.80;;
1128;SDS011;553;51.038;7.216;2024-01-30T03:45:34;15.63;;;11.20;;
1128;SDS011;553;51.038;7.216;2024-01-30T03:48:01;17.13;;;11.53;;
1128;SDS011;553;51.038;7.216;2024-01-30T03:50:28;13.77;;;9.67;;
1128;SDS011;553;51.038;7.216;2024-01-30T03:52:55;21.67;;;10.40;;
1128;SDS011;553;51.038;7.216;2024-01-30T03:55:21;13.90;;;10.87;;
1128;SDS011;553;51.038;7.216;2024-01-30T03:57:48;15.80;;;10.70;;
1128;SDS011;553;51.038;7.216;2024-01-30T04:00:15;15.90;;;10.40;;
1128;SDS011;553;51.038;7.216;2024-01-30T04:02:42;15.77;;;11.00;;
1128;SDS011;553;51.038;7.216;2024-01-30T04:05:09;14.73;;;9.73;;
1128;SDS011;553;51.038;7.216;2024-01-30T04:07:36;19.07;;;10.57;;
1128;SDS011;553;51.038;7.216;2024-01-30T04:10:02;16.93;;;9.83;;
1128;SDS011;553;51.038;7.216;2024-01-30T04:12:32;16.90;;;10.20;;
1128;SDS011;553;51.038;7.216;2024-01-30T04:14:58;14.83;;;10.50;;
1128;SDS011;553;51.038;7.216;2024-01-30T04:17:25;13.90;;;10.37;;
1128;SDS011;553;51.038;7.216;2024-01-30T04:19:52;19.33;;;11.47;;
1128;SDS011;553;51.038;7.216;2024-01-30T04:22:19;17.30;;;11.77;;
1128;SDS011;553;51.038;7.216;2024-01-30T04:24:46;21.57;;;10.87;;
1128;SDS011;553;51.038;7.216;2024-01-30T04:27:13;13.90;;;9.80;;
1128;SDS011;553;51.038;7.216;2024-01-30T04:29:40;16.27;;;10.80;;
1128;SDS011;553;51.038;7.216;2024-01-30T04:32:07;15.50;;;9.43;;
1128;SDS011;553;51.038;7.216;2024-01-30T04:34:34;17.33;;;10.57;;
1128;SDS011;553;51.038;7.216;2024-01-30T04:37:00;14.77;;;9.53;;
1128;SDS011;553;51.038;7.216;2024-01-30T04:39:27;21.30;;;10.83;;
1128;SDS011;553;51.038;7.216;2024-01-30T04:41:54;12.83;;;9.13;;
1128;SDS011;553;51.038;7.216;2024-01-30T04:44:21;15.10;;;10.00;;
1128;SDS011;553;51.038;7.216;2024-01-30T04:46:48;15.13;;;9.60;;
1128;SDS011;553;51.038;7.216;2024-01-30T04:49:15;15.30;;;9.90;;
1128;SDS011;553;51.038;7.216;2024-01-30T04:51:41;14.93;;;8.90;;
1128;SDS011;553;51.038;7.216;2024-01-30T04:54:08;14.73;;;9.30;;
1128;SDS011;553;51.038;7.216;2024-01-30T04:56:35;17.27;;;10.13;;
1128;SDS011;553;51.038;7.216;2024-01-30T04:59:02;14.20;;;10.30;;
1128;SDS011;553;51.038;7.216;2024-01-30T05:01:29;17.90;;;9.00;;
1128;SDS011;553;51.038;7.216;2024-01-30T05:03:56;13.60;;;9.20;;
1128;SDS011;553;51.038;7.216;2024-01-30T05:06:24;14.97;;;9.83;;
1128;SDS011;553;51.038;7.216;2024-01-30T05:08:52;12.17;;;9.47;;
1128;SDS011;553;51.038;7.216;2024-01-30T05:11:18;14.70;;;10.30;;
1128;SDS011;553;51.038;7.216;2024-01-30T05:13:45;13.30;;;8.87;;
1128;SDS011;553;51.038;7.216;2024-01-30T05:16:12;14.97;;;9.50;;
1128;SDS011;553;51.038;7.216;2024-01-30T05:18:39;14.23;;;9.90;;
1128;SDS011;553;51.038;7.216;2024-01-30T05:21:06;13.43;;;10.53;;
1128;SDS011;553;51.038;7.216;2024-01-30T05:23:33;16.10;;;10.07;;
1128;SDS011;553;51.038;7.216;2024-01-30T05:26:00;17.20;;;10.40;;
1128;SDS011;553;51.038;7.216;2024-01-30T05:28:28;18.13;;;9.53;;
1128;SDS011;553;51.038;7.216;2024-01-30T05:30:56;17.33;;;10.27;;
1128;SDS011;553;51.038;7.216;2024-01-30T05:33:23;13.63;;;9.87;;
1128;SDS011;553;51.038;7.216;2024-01-30T05:35:50;15.77;;;9.87;;
1128;SDS011;553;51.038;7.216;2024-01-30T05:38:20;13.83;;;10.57;;
1128;SDS011;553;51.038;7.216;2024-01-30T05:40:47;15.53;;;10.27;;
1128;SDS011;553;51.038;7.216;2024-01-30T05:43:13;13.80;;;9.07;;
1128;SDS011;553;51.038;7.216;2024-01-30T05:45:41;18.50;;;10.53;;
1128;SDS011;553;51.038;7.216;2024-01-30T05:48:07;13.70;;;9.80;;
1128;SDS011;553;51.038;7.216;2024-01-30T05:50:34;13.53;;;9.20;;
1128;SDS011;553;51.038;7.216;2024-01-30T05:53:01;18.80;;;10.40;;
1128;SDS011;553;51.038;7.216;2024-01-30T05:55:28;15.80;;;10.57;;
1128;SDS011;553;51.038;7.216;2024-01-30T05:57:55;11.47;;;8.80;;
1128;SDS011;553;51.038;7.216;2024-01-30T06:00:21;15.73;;;10.57;;
1128;SDS011;553;51.038;7.216;2024-01-30T06:02:48;15.60;;;9.60;;
1128;SDS011;553;51.038;7.216;2024-01-30T06:05:15;16.30;;;10.40;;
1128;SDS011;553;51.038;7.216;2024-01-30T06:07:42;14.03;;;9.00;;
1128;SDS011;553;51.038;7.216;2024-01-30T06:10:09;16.33;;;10.70;;
1128;SDS011;553;51.038;7.216;2024-01-30T06:12:36;15.90;;;9.60;;
1128;SDS011;553;51.038;7.216;2024-01-30T06:15:03;13.70;;;9.30;;
1128;SDS011;553;51.038;7.216;2024-01-30T06:17:31;17.33;;;11.00;;
1128;SDS011;553;51.038;7.216;2024-01-30T06:19:57;19.53;;;10.10;;
1128;SDS011;553;51.038;7.216;2024-01-30T06:22:25;18.00;;;10.90;;
1128;SDS011;553;51.038;7.216;2024-01-30T06:24:51;19.53;;;10.40;;
1128;SDS011;553;51.038;7.216;2024-01-30T06:27:18;15.97;;;10.40;;
1128;SDS011;553;51.038;7.216;2024-01-30T06:29:45;14.23;;;9.77;;
1128;SDS011;553;51.038;7.216;2024-01-30T06:32:12;16.80;;;11.60;;
1128;SDS011;553;51.038;7.216;2024-01-30T06:34:40;15.50;;;10.10;;
1128;SDS011;553;51.038;7.216;2024-01-30T06:37:07;12.30;;;10.37;;
1128;SDS011;553;51.038;7.216;2024-01-30T06:39:34;15.90;;;10.60;;
1128;SDS011;553;51.038;7.216;2024-01-30T06:42:00;18.00;;;11.27;;
1128;SDS011;553;51.038;7.216;2024-01-30T06:44:27;14.57;;;10.10;;
1128;SDS011;553;51.038;7.216;2024-01-30T06:46:58;15.07;;;10.33;;
1128;SDS011;553;51.038;7.216;2024-01-30T06:49:25;15.07;;;10.30;;
1128;SDS011;553;51.038;7.216;2024-01-30T06:51:52;16.10;;;10.80;;
1128;SDS011;553;51.038;7.216;2024-01-30T06:54:18;17.63;;;11.93;;
1128;SDS011;553;51.038;7.216;2024-01-30T06:56:45;19.67;;;11.33;;
1128;SDS011;553;51.038;7.216;2024-01-30T06:59:12;16.73;;;10.90;;
1128;SDS011;553;51.038;7.216;2024-01-30T07:01:39;16.67;;;11.63;;
1128;SDS011;553;51.038;7.216;2024-01-30T07:04:06;18.47;;;10.27;;
1128;SDS011;553;51.038;7.216;2024-01-30T07:06:33;18.50;;;10.07;;
1128;SDS011;553;51.038;7.216;2024-01-30T07:09:00;14.17;;;10.63;;
1128;SDS011;553;51.038;7.216;2024-01-30T07:11:26;13.47;;;9.50;;
1128;SDS011;553;51.038;7.216;2024-01-30T07:13:54;17.03;;;9.53;;
1128;SDS011;553;51.038;7.216;2024-01-30T07:16:21;17.43;;;10.20;;
1128;SDS011;553;51.038;7.216;2024-01-30T07:18:49;23.73;;;10.83;;
1128;SDS011;553;51.038;7.216;2024-01-30T07:21:16;16.70;;;9.37;;
1128;SDS011;553;51.038;7.216;2024-01-30T07:23:43;13.97;;;10.67;;
1128;SDS011;553;51.038;7.216;2024-01-30T07:26:10;14.70;;;9.67;;
1128;SDS011;553;51.038;7.216;2024-01-30T07:28:37;15.10;;;9.90;;
1128;SDS011;553;51.038;7.216;2024-01-30T07:31:04;14.33;;;10.00;;
1128;SDS011;553;51.038;7.216;2024-01-30T07:33:32;13.50;;;9.63;;
1128;SDS011;553;51.038;7.216;2024-01-30T07:35:59;17.27;;;10.57;;
1128;SDS011;553;51.038;7.216;2024-01-30T07:38:26;17.23;;;10.80;;
1128;SDS011;553;51.038;7.216;2024-01-30T07:40:53;16.73;;;10.87;;
1128;SDS011;553;51.038;7.216;2024-01-30T07:43:19;20.50;;;11.10;;
1128;SDS011;553;51.038;7.216;2024-01-30T07:45:46;13.70;;;9.70;;
1128;SDS011;553;51.038;7.216;2024-01-30T07:48:13;18.30;;;10.97;;
1128;SDS011;553;51.038;7.216;2024-01-30T07:50:40;16.77;;;9.83;;
1128;SDS011;553;51.038;7.216;2024-01-30T07:53:07;16.13;;;10.33;;
1128;SDS011;553;51.038;7.216;2024-01-30T07:55:34;12.90;;;9.90;;
1128;SDS011;553;51.038;7.216;2024-01-30T07:58:01;14.73;;;10.23;;
1128;SDS011;553;51.038;7.216;2024-01-30T08:00:28;10.67;;;9.33;;
1128;SDS011;553;51.038;7.216;2024-01-30T08:02:55;18.77;;;10.80;;
1128;SDS011;553;51.038;7.216;2024-01-30T08:05:23;20.73;;;10.20;;
1128;SDS011;553;51.038;7.216;2024-01-30T08:07:50;14.93;;;11.00;;
1128;SDS011;553;51.038;7.216;2024-01-30T08:10:17;14.03;;;9.90;;
1128;SDS011;553;51.038;7.216;2024-01-30T08:12:47;13.70;;;9.67;;
1128;SDS011;553;51.038;7.216;2024-01-30T08:15:14;14.07;;;10.67;;
1128;SDS011;553;51.038;7.216;2024-01-30T08:17:41;13.07;;;9.23;;
1128;SDS011;553;51.038;7.216;2024-01-30T08:20:08;16.70;;;9.83;;
1128;SDS011;553;51.038;7.216;2024-01-30T08:22:40;15.47;;;10.57;;
1128;SDS011;553;51.038;7.216;2024-01-30T08:25:07;16.63;;;10.03;;
1128;SDS011;553;51.038;7.216;2024-01-30T08:27:36;12.10;;;8.47;;
1128;SDS011;553;51.038;7.216;2024-01-30T08:30:05;14.63;;;10.07;;
1128;SDS011;553;51.038;7.216;2024-01-30T08:32:33;14.93;;;9.90;;
1128;SDS011;553;51.038;7.216;2024-01-30T08:35:00;13.00;;;9.50;;
1128;SDS011;553;51.038;7.216;2024-01-30T08:37:30;18.00;;;10.57;;
1128;SDS011;553;51.038;7.216;2024-01-30T08:39:57;15.80;;;9.97;;
1128;SDS011;553;51.038;7.216;2024-01-30T08:42:24;13.13;;;9.67;;
1128;SDS011;553;51.038;7.216;2024-01-30T08:44:51;14.50;;;9.90;;
1128;SDS011;553;51.038;7.216;2024-01-30T08:47:19;16.30;;;9.17;;
1128;SDS011;553;51.038;7.216;2024-01-30T08:49:46;11.23;;;7.90;;
1128;SDS011;553;51.038;7.216;2024-01-30T08:52:12;18.53;;;9.70;;
1128;SDS011;553;51.038;7.216;2024-01-30T08:54:39;13.70;;;9.40;;
1128;SDS011;553;51.038;7.216;2024-01-30T08:57:07;14.67;;;11.10;;
1128;SDS011;553;51.038;7.216;2024-01-30T08:59:33;14.63;;;9.83;;
1128;SDS011;553;51.038;7.216;2024-01-30T09:02:00;13.83;;;8.77;;
1128;SDS011;553;51.038;7.216;2024-01-30T09:04:38;13.07;;;9.43;;
1128;SDS011;553;51.038;7.216;2024-01-30T09:07:06;12.10;;;8.97;;
1128;SDS011;553;51.038;7.216;2024-01-30T09:09:39;14.03;;;8.87;;
1128;SDS011;553;51.038;7.216;2024-01-30T09:12:07;13.17;;;8.77;;
1128;SDS011;553;51.038;7.216;2024-01-30T09:14:36;15.63;;;9.53;;
1128;SDS011;553;51.038;7.216;2024-01-30T09:17:04;14.30;;;9.70;;
1128;SDS011;553;51.038;7.216;2024-01-30T09:19:31;14.43;;;9.93;;
1128;SDS011;553;51.038;7.216;2024-01-30T09:21:58;13.63;;;10.17;;
1128;SDS011;553;51.038;7.216;2024-01-30T09:24:25;12.60;;;8.93;;
1128;SDS011;553;51.038;7.216;2024-01-30T09:26:52;11.97;;;9.37;;
1128;SDS011;553;51.038;7.216;2024-01-30T09:29:19;15.13;;;9.70;;
1128;SDS011;553;51.038;7.216;2024-01-30T09:31:47;13.90;;;7.83;;
1128;SDS011;553;51.038;7.216;2024-01-30T09:34:13;14.10;;;9.57;;
1128;SDS011;553;51.038;7.216;2024-01-30T09:36:40;12.70;;;9.23;;
1128;SDS011;553;51.038;7.216;2024-01-30T09:39:07;12.10;;;8.07;;
1128;SDS011;553;51.038;7.216;2024-01-30T09:41:37;13.37;;;8.90;;
1128;SDS011;553;51.038;7.216;2024-01-30T09:44:20;12.10;;;8.10;;
1128;SDS011;553;51.038;7.216;2024-01-30T09:46:49;16.80;;;8.80;;
1128;SDS011;553;51.038;7.216;2024-01-30T09:49:17;13.87;;;8.83;;
1128;SDS011;553;51.038;7.216;2024-01-30T09:51:46;11.80;;;8.00;;
1128;SDS011;553;51.038;7.216;2024-01-30T09:54:14;10.17;;;8.23;;
1128;SDS011;553;51.038;7.216;2024-01-30T09:56:42;11.10;;;7.33;;
1128;SDS011;553;51.038;7.216;2024-01-30T09:59:09;12.63;;;8.60;;
1128;SDS011;553;51.038;7.216;2024-01-30T10:01:35;16.37;;;9.43;;
1128;SDS011;553;51.038;7.216;2024-01-30T10:04:03;12.23;;;8.23;;
1128;SDS011;553;51.038;7.216;2024-01-30T10:06:31;15.50;;;9.73;;
1128;SDS011;553;51.038;7.216;2024-01-30T10:08:58;9.73;;;6.27;;
1128;SDS011;553;51.038;7.216;2024-01-30T10:11:25;12.13;;;8.40;;
1128;SDS011;553;51.038;7.216;2024-01-30T10:13:51;11.27;;;7.80;;
1128;SDS011;553;51.038;7.216;2024-01-30T10:16:18;17.03;;;8.10;;
1128;SDS011;553;51.038;7.216;2024-01-30T10:18:45;9.40;;;7.43;;
1128;SDS011;553;51.038;7.216;2024-01-30T10:21:12;16.90;;;7.73;;
1128;SDS011;553;51.038;7.216;2024-01-30T10:23:39;12.40;;;8.00;;
1128;SDS011;553;51.038;7.216;2024-01-30T10:26:07;11.33;;;8.00;;
1128;SDS011;553;51.038;7.216;2024-01-30T10:28:34;11.73;;;8.23;;
1128;SDS011;553;51.038;7.216;2024-01-30T10:31:01;17.43;;;8.23;;
1128;SDS011;553;51.038;7.216;2024-01-30T10:33:32;10.70;;;7.40;;
1128;SDS011;553;51.038;7.216;2024-01-30T10:36:03;13.23;;;7.70;;
1128;SDS011;553;51.038;7.216;2024-01-30T10:38:31;13.40;;;8.03;;
1128;SDS011;553;51.038;7.216;2024-01-30T10:41:00;15.23;;;8.20;;
1128;SDS011;553;51.038;7.216;2024-01-30T10:43:38;16.37;;;8.97;;
1128;SDS011;553;51.038;7.216;2024-01-30T10:46:17;13.50;;;7.60;;
1128;SDS011;553;51.038;7.216;2024-01-30T10:48:50;12.77;;;8.17;;
1128;SDS011;553;51.038;7.216;2024-01-30T10:51:29;10.60;;;8.63;;
1128;SDS011;553;51.038;7.216;2024-01-30T10:53:57;13.93;;;8.20;;
1128;SDS011;553;51.038;7.216;2024-01-30T10:56:24;16.40;;;11.20;;
1128;SDS011;553;51.038;7.216;2024-01-30T10:58:52;15.67;;;10.03;;
1128;SDS011;553;51.038;7.216;2024-01-30T11:01:19;10.33;;;8.20;;
1128;SDS011;553;51.038;7.216;2024-01-30T11:03:50;11.50;;;8.60;;
1128;SDS011;553;51.038;7.216;2024-01-30T11:06:18;19.83;;;9.90;;
1128;SDS011;553;51.038;7.216;2024-01-30T11:09:04;13.63;;;9.80;;
1128;SDS011;553;51.038;7.216;2024-01-30T11:11:51;14.53;;;9.60;;
1128;SDS011;553;51.038;7.216;2024-01-30T11:14:26;13.23;;;8.07;;
1128;SDS011;553;51.038;7.216;2024-01-30T11:16:56;9.73;;;7.73;;
1128;SDS011;553;51.038;7.216;2024-01-30T11:19:25;14.03;;;8.20;;
1128;SDS011;553;51.038;7.216;2024-01-30T11:21:53;11.87;;;8.40;;
1128;SDS011;553;51.038;7.216;2024-01-30T11:24:23;14.73;;;8.50;;
1128;SDS011;553;51.038;7.216;2024-01-30T11:26:57;11.80;;;7.30;;
1128;SDS011;553;51.038;7.216;2024-01-30T11:29:29;12.50;;;7.63;;
1128;SDS011;553;51.038;7.216;2024-01-30T11:31:56;12.47;;;8.30;;
1128;SDS011;553;51.038;7.216;2024-01-30T11:34:24;14.20;;;8.73;;
1128;SDS011;553;51.038;7.216;2024-01-30T11:36:52;10.23;;;7.70;;
1128;SDS011;553;51.038;7.216;2024-01-30T11:39:25;12.30;;;8.20;;
1128;SDS011;553;51.038;7.216;2024-01-30T11:41:55;10.87;;;8.37;;
1128;SDS011;553;51.038;7.216;2024-01-30T11:44:22;10.30;;;7.73;;
1128;SDS011;553;51.038;7.216;2024-01-30T11:46:50;14.87;;;9.80;;
1128;SDS011;553;51.038;7.216;2024-01-30T11:49:18;12.13;;;8.53;;
1128;SDS011;553;51.038;7.216;2024-01-30T11:51:45;10.50;;;8.33;;
1128;SDS011;553;51.038;7.216;2024-01-30T11:54:17;16.33;;;8.47;;
1128;SDS011;553;51.038;7.216;2024-01-30T11:56:44;11.93;;;8.90;;
1128;SDS011;553;51.038;7.216;2024-01-30T11:59:11;9.57;;;7.70;;
1128;SDS011;553;51.038;7.216;2024-01-30T12:01:38;11.10;;;8.00;;
1128;SDS011;553;51.038;7.216;2024-01-30T12:04:09;9.23;;;7.30;;
1128;SDS011;553;51.038;7.216;2024-01-30T12:06:37;15.90;;;7.80;;
1128;SDS011;553;51.038;7.216;2024-01-30T12:09:04;12.93;;;8.37;;
1128;SDS011;553;51.038;7.216;2024-01-30T12:11:43;12.97;;;8.40;;
1128;SDS011;553;51.038;7.216;2024-01-30T12:14:13;12.40;;;7.80;;
1128;SDS011;553;51.038;7.216;2024-01-30T12:16:41;12.90;;;7.53;;
1128;SDS011;553;51.038;7.216;2024-01-30T12:19:08;10.20;;;7.87;;
1128;SDS011;553;51.038;7.216;2024-01-30T12:21:35;13.10;;;8.53;;
1128;SDS011;553;51.038;7.216;2024-01-30T12:24:03;13.17;;;7.97;;
1128;SDS011;553;51.038;7.216;2024-01-30T12:26:30;10.67;;;7.90;;
1128;SDS011;553;51.038;7.216;2024-01-30T12:28:56;14.10;;;7.23;;
1128;SDS011;553;51.038;7.216;2024-01-30T12:31:28;12.70;;;7.87;;
1128;SDS011;553;51.038;7.216;2024-01-30T12:33:55;9.03;;;7.10;;
1128;SDS011;553;51.038;7.216;2024-01-30T12:36:24;16.20;;;8.83;;
1128;SDS011;553;51.038;7.216;2024-01-30T12:38:52;12.17;;;8.30;;
1128;SDS011;553;51.038;7.216;2024-01-30T12:41:19;13.60;;;7.77;;
1128;SDS011;553;51.038;7.216;2024-01-30T12:43:46;10.40;;;7.50;;
1128;SDS011;553;51.038;7.216;2024-01-30T12:46:16;14.23;;;7.37;;
1128;SDS011;553;51.038;7.216;2024-01-30T12:48:43;12.53;;;8.00;;
1128;SDS011;553;51.038;7.216;2024-01-30T12:51:10;11.10;;;7.90;;
1128;SDS011;553;51.038;7.216;2024-01-30T12:53:37;9.73;;;7.77;;
1128;SDS011;553;51.038;7.216;2024-01-30T12:56:04;11.90;;;7.60;;
1128;SDS011;553;51.038;7.216;2024-01-30T12:58:31;8.90;;;7.30;;
1128;SDS011;553;51.038;7.216;2024-01-30T13:00:57;12.47;;;8.03;;
1128;SDS011;553;51.038;7.216;2024-01-30T13:03:25;11.33;;;8.00;;
1128;SDS011;553;51.038;7.216;2024-01-30T13:05:51;11.07;;;7.73;;
1128;SDS011;553;51.038;7.216;2024-01-30T13:08:19;11.67;;;7.73;;
1128;SDS011;553;51.038;7.216;2024-01-30T13:10:45;8.73;;;7.70;;
1128;SDS011;553;51.038;7.216;2024-01-30T13:13:15;10.20;;;7.53;;
1128;SDS011;553;51.038;7.216;2024-01-30T13:15:46;10.20;;;7.10;;
1128;SDS011;553;51.038;7.216;2024-01-30T13:18:14;8.20;;;6.50;;
1128;SDS011;553;51.038;7.216;2024-01-30T13:20:41;10.67;;;6.73;;
1128;SDS011;553;51.038;7.216;2024-01-30T13:23:08;10.53;;;6.77;;
1128;SDS011;553;51.038;7.216;2024-01-30T13:25:35;10.57;;;7.43;;
1128;SDS011;553;51.038;7.216;2024-01-30T13:28:02;9.97;;;7.13;;
1128;SDS011;553;51.038;7.216;2024-01-30T13:30:29;9.90;;;8.30;;
1128;SDS011;553;51.038;7.216;2024-01-30T13:32:55;9.73;;;6.90;;
1128;SDS011;553;51.038;7.216;2024-01-30T13:35:22;9.60;;;7.00;;
1128;SDS011;553;51.038;7.216;2024-01-30T13:37:49;9.60;;;6.77;;
1128;SDS011;553;51.038;7.216;2024-01-30T13:40:16;12.33;;;8.03;;
1128;SDS011;553;51.038;7.216;2024-01-30T13:42:43;8.23;;;7.00;;
1128;SDS011;553;51.038;7.216;2024-01-30T13:45:10;11.60;;;6.57;;
1128;SDS011;553;51.038;7.216;2024-01-30T13:47:37;10.53;;;7.40;;
1128;SDS011;553;51.038;7.216;2024-01-30T13:50:05;10.80;;;7.50;;
1128;SDS011;553;51.038;7.216;2024-01-30T13:52:32;11.23;;;7.20;;
1128;SDS011;553;51.038;7.216;2024-01-30T13:55:10;13.17;;;7.83;;
1128;SDS011;553;51.038;7.216;2024-01-30T13:57:37;9.33;;;7.33;;
1128;SDS011;553;51.038;7.216;2024-01-30T14:00:05;15.43;;;7.90;;
1128;SDS011;553;51.038;7.216;2024-01-30T14:02:38;11.80;;;7.33;;
1128;SDS011;553;51.038;7.216;2024-01-30T14:05:05;10.70;;;7.30;;
1128;SDS011;553;51.038;7.216;2024-01-30T14:07:32;12.57;;;7.97;;
1128;SDS011;553;51.038;7.216;2024-01-30T14:09:59;11.63;;;7.60;;
1128;SDS011;553;51.038;7.216;2024-01-30T14:12:26;11.30;;;7.67;;
1128;SDS011;553;51.038;7.216;2024-01-30T14:14:53;10.63;;;7.73;;
1128;SDS011;553;51.038;7.216;2024-01-30T14:17:20;14.13;;;7.90;;
1128;SDS011;553;51.038;7.216;2024-01-30T14:19:47;13.80;;;8.27;;
1128;SDS011;553;51.038;7.216;2024-01-30T14:22:14;11.60;;;7.27;;
1128;SDS011;553;51.038;7.216;2024-01-30T14:24:40;14.60;;;8.90;;
1128;SDS011;553;51.038;7.216;2024-01-30T14:27:07;16.50;;;7.77;;
1128;SDS011;553;51.038;7.216;2024-01-30T14:29:35;15.83;;;8.67;;
1128;SDS011;553;51.038;7.216;2024-01-30T14:32:02;12.50;;;7.50;;
1128;SDS011;553;51.038;7.216;2024-01-30T14:34:30;18.30;;;9.20;;
1128;SDS011;553;51.038;7.216;2024-01-30T14:36:57;11.87;;;8.37;;
1128;SDS011;553;51.038;7.216;2024-01-30T14:39:24;18.50;;;9.70;;
1128;SDS011;553;51.038;7.216;2024-01-30T14:41:51;13.43;;;9.03;;
1128;SDS011;553;51.038;7.216;2024-01-30T14:44:18;15.80;;;9.00;;
1128;SDS011;553;51.038;7.216;2024-01-30T14:46:44;12.13;;;8.90;;
1128;SDS011;553;51.038;7.216;2024-01-30T14:49:11;16.73;;;9.33;;
1128;SDS011;553;51.038;7.216;2024-01-30T14:51:38;10.90;;;9.00;;
1128;SDS011;553;51.038;7.216;2024-01-30T14:54:05;16.90;;;9.10;;
1128;SDS011;553;51.038;7.216;2024-01-30T14:56:32;12.83;;;8.90;;
1128;SDS011;553;51.038;7.216;2024-01-30T14:58:59;12.50;;;9.30;;
1128;SDS011;553;51.038;7.216;2024-01-30T15:01:26;11.37;;;8.93;;
1128;SDS011;553;51.038;7.216;2024-01-30T15:03:54;12.70;;;8.90;;
1128;SDS011;553;51.038;7.216;2024-01-30T15:06:22;14.63;;;10.20;;
1128;SDS011;553;51.038;7.216;2024-01-30T15:08:50;15.33;;;10.10;;
1128;SDS011;553;51.038;7.216;2024-01-30T15:11:18;13.77;;;9.73;;
1128;SDS011;553;51.038;7.216;2024-01-30T15:13:45;11.50;;;8.63;;